Time;durP1;ratioP1;P1;durP2;ratioP2;P2;SDS_P1;SDS_P2;PMS_P1;PMS_P2;Temp;Humidity;BMP_temperature;BMP_pressure;BME280_temperature;BME280_humidity;BME280_pressure;Samples;Min_cycle;Max_cycle;Signal;HPM_P1;HPM_P2
2022/05/27 00:02:21;;;;;;;235.07;80.25;;;;;;;;;;6241474;23;20004;-89
2022/05/27 00:04:47;;;;;;;199.18;71.72;;;;;;;;;;6241236;23;19996;-88
2022/05/27 00:07:13;;;;;;;196.02;71.50;;;;;;;;;;6242000;23;20000;-89
2022/05/27 00:09:39;;;;;;;200.98;71.78;;;;;;;;;;6240986;23;20058;-89
2022/05/27 00:12:06;;;;;;;194.40;70.50;;;;;;;;;;6239624;23;20227;-89
2022/05/27 00:14:32;;;;;;;197.68;72.18;;;;;;;;;;6239947;23;20079;-88
2022/05/27 00:16:58;;;;;;;161.77;64.32;;;;;;;;;;6241343;23;20015;-89
2022/05/27 00:19:24;;;;;;;171.07;66.00;;;;;;;;;;6239662;23;20004;-88
2022/05/27 00:21:50;;;;;;;147.60;60.28;;;;;;;;;;6241597;23;20000;-90
2022/05/27 00:24:17;;;;;;;142.15;58.58;;;;;;;;;;6241241;23;20089;-89
2022/05/27 00:26:43;;;;;;;160.38;63.03;;;;;;;;;;6241826;23;20430;-88
2022/05/27 00:29:09;;;;;;;143.40;59.83;;;;;;;;;;6241073;23;20023;-89
2022/05/27 00:31:35;;;;;;;142.48;60.05;;;;;;;;;;6241081;23;20008;-89
2022/05/27 00:34:01;;;;;;;142.50;59.78;;;;;;;;;;6241021;23;19996;-89
2022/05/27 00:36:27;;;;;;;130.73;56.33;;;;;;;;;;6241415;23;20004;-89
2022/05/27 00:38:54;;;;;;;126.03;55.58;;;;;;;;;;6241119;23;20000;-89
2022/05/27 00:41:20;;;;;;;121.60;52.80;;;;;;;;;;6241449;23;20080;-89
2022/05/27 00:43:46;;;;;;;112.32;50.22;;;;;;;;;;6242050;23;20054;-89
2022/05/27 00:46:16;;;;;;;109.25;50.28;;;;;;;;;;6242208;23;20508;-89
2022/05/27 00:48:42;;;;;;;104.13;48.70;;;;;;;;;;6240019;23;20015;-88
2022/05/27 00:51:23;;;;;;;92.40;45.38;;;;;;;;;;6240829;23;20005;-89
2022/05/27 00:54:12;;;;;;;107.55;50.17;;;;;;;;;;6239605;23;20008;-88
2022/05/27 00:56:40;;;;;;;96.28;46.58;;;;;;;;;;6230127;22;20239;-88
2022/05/27 00:59:08;;;;;;;234.80;80.35;;;;;;;;;;6242857;23;20026;-88
2022/05/27 01:01:34;;;;;;;242.65;84.57;;;;;;;;;;6241046;23;20000;-88
2022/05/27 01:04:01;;;;;;;225.07;78.60;;;;;;;;;;6240995;23;20004;-89
2022/05/27 01:06:27;;;;;;;165.68;65.03;;;;;;;;;;6240840;23;20058;-88
2022/05/27 01:08:53;;;;;;;139.25;57.35;;;;;;;;;;6241087;23;20004;-89
2022/05/27 01:11:41;;;;;;;115.63;52.67;;;;;;;;;;6240902;23;20044;-88
2022/05/27 01:14:14;;;;;;;118.78;53.50;;;;;;;;;;6241097;23;20004;-88
2022/05/27 01:16:59;;;;;;;116.38;51.47;;;;;;;;;;6242602;23;20433;-88
2022/05/27 01:22:35;;;;;;;92.63;45.95;;;;;;;;;;6242446;23;20031;-88
2022/05/27 01:25:01;;;;;;;117.05;51.88;;;;;;;;;;6242271;23;20004;-88
2022/05/27 01:27:45;;;;;;;66.00;37.05;;;;;;;;;;6241354;23;20317;-88
2022/05/27 01:30:17;;;;;;;74.47;39.17;;;;;;;;;;6241428;23;20004;-88
2022/05/27 01:33:08;;;;;;;59.08;35.08;;;;;;;;;;6242720;23;20142;-88
2022/05/27 01:35:40;;;;;;;45.75;25.90;;;;;;;;;;6242563;23;19997;-89
2022/05/27 01:38:06;;;;;;;34.58;17.23;;;;;;;;;;6240936;23;20058;-89
2022/05/27 01:40:32;;;;;;;38.85;22.27;;;;;;;;;;6240694;23;20035;-88
2022/05/27 01:43:05;;;;;;;37.10;22.98;;;;;;;;;;6242447;23;20463;-88
2022/05/27 01:45:46;;;;;;;50.55;29.08;;;;;;;;;;6242879;23;20000;-88
2022/05/27 01:48:15;;;;;;;46.33;26.10;;;;;;;;;;6241127;23;20035;-89
2022/05/27 01:50:44;;;;;;;54.08;27.88;;;;;;;;;;6245329;23;20012;-88
2022/05/27 01:53:31;;;;;;;55.88;30.17;;;;;;;;;;6253142;22;20016;-89
2022/05/27 01:56:00;;;;;;;493.38;154.93;;;;;;;;;;6242089;23;19996;-89
2022/05/27 01:58:30;;;;;;;615.80;190.82;;;;;;;;;;6250503;23;20004;-88
2022/05/27 02:00:56;;;;;;;490.58;140.18;;;;;;;;;;6245880;23;20325;-89
2022/05/27 02:03:25;;;;;;;365.05;112.65;;;;;;;;;;6240935;23;20083;-88
2022/05/27 02:05:56;;;;;;;220.65;77.90;;;;;;;;;;6240573;23;20004;-88
2022/05/27 02:08:25;;;;;;;161.00;63.17;;;;;;;;;;6240598;23;20357;-88
2022/05/27 02:10:51;;;;;;;261.92;87.22;;;;;;;;;;6241436;23;20437;-89
2022/05/27 02:13:38;;;;;;;195.88;72.22;;;;;;;;;;6241429;23;20044;-88
2022/05/27 02:16:04;;;;;;;135.20;58.85;;;;;;;;;;6241928;23;20440;-89
2022/05/27 02:18:37;;;;;;;152.65;60.97;;;;;;;;;;6241999;23;20478;-89
2022/05/27 02:21:14;;;;;;;116.63;52.75;;;;;;;;;;6240375;23;20000;-89
2022/05/27 02:23:43;;;;;;;276.37;92.17;;;;;;;;;;6240305;23;20008;-89
2022/05/27 02:26:20;;;;;;;268.80;88.60;;;;;;;;;;6242166;23;20031;-88
2022/05/27 02:28:48;;;;;;;224.23;78.97;;;;;;;;;;6240440;23;20344;-88
2022/05/27 02:31:14;;;;;;;;;;;;;;;;;;6240903;23;20066;-88
2022/05/27 02:36:37;;;;;;;344.50;109.10;;;;;;;;;;6241791;23;20388;-88
2022/05/27 02:39:04;;;;;;;349.98;110.57;;;;;;;;;;6240475;23;20004;-88
2022/05/27 02:41:35;;;;;;;242.65;84.10;;;;;;;;;;6241626;23;20004;-88
2022/05/27 02:44:07;;;;;;;163.73;64.25;;;;;;;;;;6240018;23;20054;-88
2022/05/27 02:46:38;;;;;;;132.93;56.97;;;;;;;;;;6241372;23;20000;-88
2022/05/27 02:49:22;;;;;;;73.88;40.67;;;;;;;;;;6242049;23;19996;-89
2022/05/27 02:51:58;;;;;;;96.95;48.92;;;;;;;;;;6241843;23;20008;-88
2022/05/27 02:54:27;;;;;;;94.47;46.95;;;;;;;;;;6242577;23;20000;-88
2022/05/27 02:56:53;;;;;;;131.70;56.78;;;;;;;;;;6241307;23;20481;-88
2022/05/27 02:59:19;;;;;;;241.82;83.15;;;;;;;;;;6240711;23;20008;-89
2022/05/27 03:01:47;;;;;;;466.02;138.00;;;;;;;;;;6241820;23;20498;-88
2022/05/27 03:04:13;;;;;;;334.58;105.55;;;;;;;;;;6241787;23;20010;-88
2022/05/27 03:07:01;;;;;;;17.95;3.60;;;;;;;;;;6239865;23;20004;-87
2022/05/27 03:09:50;;;;;;;767.53;262.52;;;;;;;;;;6241500;23;20000;-89
2022/05/27 03:12:19;;;;;;;629.42;202.63;;;;;;;;;;6230362;23;20341;-89
2022/05/27 03:14:57;;;;;;;797.75;272.00;;;;;;;;;;6242122;23;20428;-88
2022/05/27 03:17:44;;;;;;;958.13;340.90;;;;;;;;;;6243306;23;20050;-89
2022/05/27 03:20:18;;;;;;;892.15;314.40;;;;;;;;;;6242094;23;20018;-88
2022/05/27 03:23:03;;;;;;;765.30;262.55;;;;;;;;;;6240588;23;20095;-89
2022/05/27 03:25:55;;;;;;;613.05;197.60;;;;;;;;;;6242752;23;20420;-90
2022/05/27 03:28:40;;;;;;;553.50;167.75;;;;;;;;;;6237106;23;20008;-91
2022/05/27 03:31:12;;;;;;;441.83;133.38;;;;;;;;;;6240429;23;20011;-88
2022/05/27 03:33:38;;;;;;;353.52;111.53;;;;;;;;;;6242191;23;20445;-92
2022/05/27 03:36:05;;;;;;;320.15;104.15;;;;;;;;;;6241751;23;20000;-90
2022/05/27 03:38:31;;;;;;;281.80;93.78;;;;;;;;;;6240003;23;20349;-88
2022/05/27 03:41:04;;;;;;;283.13;94.32;;;;;;;;;;6240511;23;20002;-91
2022/05/27 03:43:33;;;;;;;283.55;94.10;;;;;;;;;;6240814;23;20027;-90
2022/05/27 03:46:00;;;;;;;127.95;55.25;;;;;;;;;;6240570;23;20083;-89
2022/05/27 03:48:27;;;;;;;52.83;31.20;;;;;;;;;;6241768;23;20011;-91
2022/05/27 03:50:59;;;;;;;351.50;109.90;;;;;;;;;;6241038;23;20004;-91
2022/05/27 03:56:10;;;;;;;600.53;183.52;;;;;;;;;;6242148;23;20046;-93
2022/05/27 03:58:36;;;;;;;382.05;116.65;;;;;;;;;;6242221;23;19996;-92
2022/05/27 04:01:02;;;;;;;249.70;84.28;;;;;;;;;;6240833;23;20353;-90
2022/05/27 04:03:28;;;;;;;164.70;63.72;;;;;;;;;;6242167;23;20425;-89
2022/05/27 04:05:54;;;;;;;146.05;60.22;;;;;;;;;;6241492;23;20012;-90
2022/05/27 04:08:20;;;;;;;169.52;65.18;;;;;;;;;;6240681;23;20083;-91
2022/05/27 04:10:46;;;;;;;97.95;48.13;;;;;;;;;;6241932;23;20000;-90
2022/05/27 04:13:13;;;;;;;68.45;38.22;;;;;;;;;;6240508;23;20008;-91
2022/05/27 04:15:39;;;;;;;31.02;20.15;;;;;;;;;;6240371;23;20101;-90
2022/05/27 04:18:08;;;;;;;21.50;14.10;;;;;;;;;;6239808;23;20372;-91
2022/05/27 04:20:36;;;;;;;24.75;16.92;;;;;;;;;;6239954;23;20004;-91
2022/05/27 04:23:02;;;;;;;;;;;;;;;;;;6241062;23;20091;-91
2022/05/27 04:25:28;;;;;;;26.63;16.10;;;;;;;;;;6242567;23;19899;-91
2022/05/27 04:27:54;;;;;;;14.77;10.40;;;;;;;;;;6241458;23;20008;-91
2022/05/27 04:30:21;;;;;;;17.23;7.72;;;;;;;;;;6240769;23;20004;-91
2022/05/27 04:32:47;;;;;;;14.82;7.90;;;;;;;;;;6263329;22;20000;-90
2022/05/27 04:35:13;;;;;;;31.30;18.20;;;;;;;;;;6261889;22;20008;-90
2022/05/27 04:37:39;;;;;;;21.67;13.77;;;;;;;;;;6250216;23;20000;-91
2022/05/27 04:40:05;;;;;;;19.75;9.00;;;;;;;;;;6243191;23;20008;-91
2022/05/27 04:42:31;;;;;;;18.30;10.10;;;;;;;;;;6242464;23;20019;-91
2022/05/27 04:44:57;;;;;;;17.30;9.88;;;;;;;;;;6243230;23;20111;-91
2022/05/27 04:47:24;;;;;;;16.90;9.70;;;;;;;;;;6243735;23;20024;-90
2022/05/27 04:49:58;;;;;;;24.58;13.95;;;;;;;;;;6242480;23;20011;-91
2022/05/27 04:52:25;;;;;;;21.60;8.95;;;;;;;;;;6242562;23;20036;-90
2022/05/27 04:54:52;;;;;;;19.92;12.30;;;;;;;;;;6242545;23;20008;-90
2022/05/27 04:57:19;;;;;;;31.90;19.80;;;;;;;;;;6242433;23;20004;-90
2022/05/27 04:59:46;;;;;;;258.60;86.90;;;;;;;;;;6242195;23;20004;-90
2022/05/27 05:02:14;;;;;;;394.40;117.90;;;;;;;;;;6242778;23;20356;-91
2022/05/27 05:04:40;;;;;;;252.03;85.40;;;;;;;;;;6242823;23;20008;-91
2022/05/27 05:07:08;;;;;;;94.85;47.70;;;;;;;;;;6242509;23;20441;-91
2022/05/27 05:09:34;;;;;;;;;;;;;;;;;;6244765;23;19996;-90
2022/05/27 05:12:00;;;;;;;95.85;47.20;;;;;;;;;;6243233;23;20406;-91
2022/05/27 05:14:26;;;;;;;32.88;23.88;;;;;;;;;;6243797;23;20000;-90
2022/05/27 05:16:52;;;;;;;34.67;18.77;;;;;;;;;;6242411;23;20012;-90
2022/05/27 05:19:18;;;;;;;37.50;21.70;;;;;;;;;;6242458;23;20038;-90
2022/05/27 05:21:44;;;;;;;27.15;15.10;;;;;;;;;;6243945;23;19996;-89
2022/05/27 05:24:11;;;;;;;25.25;14.50;;;;;;;;;;6243804;23;20000;-89
2022/05/27 05:26:37;;;;;;;22.85;10.90;;;;;;;;;;6241972;23;20004;-90
2022/05/27 05:29:05;;;;;;;21.17;10.02;;;;;;;;;;6242034;23;20008;-90
2022/05/27 05:31:32;;;;;;;109.28;50.25;;;;;;;;;;6244563;23;20322;-91
2022/05/27 05:33:59;;;;;;;30.85;23.42;;;;;;;;;;6242750;23;20005;-91
2022/05/27 05:36:29;;;;;;;83.47;44.63;;;;;;;;;;6242019;23;20012;-90
2022/05/27 05:38:56;;;;;;;82.03;45.17;;;;;;;;;;6243258;23;20003;-91
2022/05/27 05:41:29;;;;;;;38.75;22.48;;;;;;;;;;6243671;23;19996;-92
2022/05/27 05:43:56;;;;;;;19.88;12.13;;;;;;;;;;6243377;23;20008;-90
2022/05/27 05:46:23;;;;;;;33.17;15.63;;;;;;;;;;6243325;23;20004;-90
2022/05/27 05:48:49;;;;;;;22.42;12.15;;;;;;;;;;6243435;23;20516;-91
2022/05/27 05:51:15;;;;;;;10.13;6.78;;;;;;;;;;6242383;23;20375;-91
2022/05/27 05:53:41;;;;;;;11.70;5.25;;;;;;;;;;6242073;23;20070;-91
2022/05/27 05:56:07;;;;;;;11.23;5.25;;;;;;;;;;6241537;23;20000;-91
2022/05/27 05:58:33;;;;;;;9.10;3.60;;;;;;;;;;6242954;23;20043;-91
2022/05/27 06:00:59;;;;;;;5.88;2.67;;;;;;;;;;6242956;23;20004;-91
2022/05/27 06:03:28;;;;;;;6.82;3.78;;;;;;;;;;6243776;23;20004;-91
2022/05/27 06:05:54;;;;;;;8.43;3.65;;;;;;;;;;6241813;23;20265;-91
2022/05/27 06:08:20;;;;;;;10.88;3.65;;;;;;;;;;6241725;23;20086;-90
2022/05/27 06:10:46;;;;;;;10.30;4.38;;;;;;;;;;6241286;23;20004;-90
2022/05/27 06:13:13;;;;;;;7.35;3.88;;;;;;;;;;6243193;23;20038;-92
2022/05/27 06:15:39;;;;;;;7.97;2.92;;;;;;;;;;6243101;23;20027;-92
2022/05/27 06:18:06;;;;;;;9.27;2.58;;;;;;;;;;6243238;23;20006;-91
2022/05/27 06:20:33;;;;;;;9.82;2.90;;;;;;;;;;6243022;23;20003;-90
2022/05/27 06:22:59;;;;;;;8.15;2.55;;;;;;;;;;6243772;23;20028;-90
2022/05/27 06:25:25;;;;;;;7.72;2.25;;;;;;;;;;6241414;23;20016;-90
2022/05/27 06:34:23;;;;;;;10.40;3.65;;;;;;;;;;6241838;23;20004;-90
2022/05/27 06:36:06;;;;;;;8.30;2.20;;;;;;;;;;6242288;23;20019;-91
2022/05/27 06:38:32;;;;;;;9.45;2.35;;;;;;;;;;6242414;23;20039;-91
2022/05/27 06:40:59;;;;;;;16.05;2.47;;;;;;;;;;6243262;23;20000;-90
2022/05/27 06:43:27;;;;;;;9.65;3.45;;;;;;;;;;6242198;23;20003;-91
2022/05/27 06:45:53;;;;;;;13.50;4.38;;;;;;;;;;6241627;23;20083;-92
2022/05/27 06:48:19;;;;;;;38.78;4.90;;;;;;;;;;6241953;23;20004;-91
2022/05/27 06:50:45;;;;;;;13.73;3.35;;;;;;;;;;6240229;23;20050;-90
2022/05/27 06:53:11;;;;;;;7.72;2.55;;;;;;;;;;6242057;23;20445;-91
2022/05/27 06:55:37;;;;;;;8.45;2.33;;;;;;;;;;6240953;23;20000;-89
2022/05/27 06:58:04;;;;;;;3.88;1.98;;;;;;;;;;6242629;23;20007;-92
2022/05/27 07:00:30;;;;;;;7.30;2.15;;;;;;;;;;6240598;23;20437;-90
2022/05/27 07:02:56;;;;;;;19.85;3.85;;;;;;;;;;6240533;23;20091;-90
2022/05/27 07:05:22;;;;;;;13.25;2.92;;;;;;;;;;6241414;23;20000;-89
2022/05/27 07:07:49;;;;;;;7.18;2.78;;;;;;;;;;6240195;23;20008;-90
2022/05/27 07:10:15;;;;;;;6.72;2.45;;;;;;;;;;6241681;23;20357;-90
2022/05/27 07:12:42;;;;;;;9.60;2.50;;;;;;;;;;6241324;23;20063;-88
2022/05/27 07:15:08;;;;;;;7.65;2.20;;;;;;;;;;6240908;23;20046;-88
2022/05/27 07:17:35;;;;;;;6.38;2.78;;;;;;;;;;6233533;23;20008;-89
2022/05/27 07:20:03;;;;;;;10.30;2.40;;;;;;;;;;6237489;23;20005;-90
2022/05/27 07:22:29;;;;;;;6.17;3.43;;;;;;;;;;6237407;23;20190;-89
2022/05/27 07:24:55;;;;;;;8.23;3.15;;;;;;;;;;6239172;23;20004;-89
2022/05/27 07:27:21;;;;;;;10.40;2.88;;;;;;;;;;6240702;23;20004;-90
2022/05/27 07:29:47;;;;;;;9.82;2.33;;;;;;;;;;6239810;23;20035;-90
2022/05/27 07:32:14;;;;;;;62.17;7.05;;;;;;;;;;6240950;23;20015;-89
2022/05/27 07:34:40;;;;;;;69.25;6.40;;;;;;;;;;6239592;23;20090;-89
2022/05/27 07:37:07;;;;;;;4.55;1.85;;;;;;;;;;6241480;23;20099;-89
2022/05/27 07:39:33;;;;;;;8.60;2.28;;;;;;;;;;6240244;23;20028;-90
2022/05/27 07:41:59;;;;;;;6.10;2.60;;;;;;;;;;6239901;23;20023;-91
2022/05/27 07:44:25;;;;;;;8.60;2.50;;;;;;;;;;6241321;23;20009;-90
2022/05/27 07:46:52;;;;;;;5.55;2.30;;;;;;;;;;6240540;23;20099;-89
2022/05/27 07:49:18;;;;;;;6.32;2.45;;;;;;;;;;6240070;23;20150;-91
2022/05/27 07:51:44;;;;;;;5.05;2.50;;;;;;;;;;6240072;23;20012;-89
2022/05/27 07:54:11;;;;;;;6.50;2.40;;;;;;;;;;6241579;23;20008;-90
2022/05/27 07:56:39;;;;;;;5.03;1.75;;;;;;;;;;6241110;23;20000;-89
2022/05/27 07:59:05;;;;;;;7.70;2.00;;;;;;;;;;6241642;23;20396;-92
2022/05/27 08:01:31;;;;;;;4.63;1.75;;;;;;;;;;6241676;23;20004;-88
2022/05/27 08:03:57;;;;;;;8.98;2.35;;;;;;;;;;6243195;23;20000;-90
2022/05/27 08:06:23;;;;;;;5.32;2.20;;;;;;;;;;6240402;23;20401;-90
2022/05/27 08:08:55;;;;;;;18.38;2.13;;;;;;;;;;6240819;23;20379;-93
2022/05/27 08:11:21;;;;;;;5.05;1.95;;;;;;;;;;6240808;23;20000;-89
2022/05/27 08:13:47;;;;;;;3.38;1.90;;;;;;;;;;6239989;23;20008;-89
2022/05/27 08:16:13;;;;;;;3.38;1.92;;;;;;;;;;6239930;23;20007;-88
2022/05/27 08:18:39;;;;;;;3.25;1.42;;;;;;;;;;6243228;23;20004;-90
2022/05/27 08:21:05;;;;;;;3.15;1.65;;;;;;;;;;6239919;23;20075;-89
2022/05/27 08:23:31;;;;;;;8.05;1.77;;;;;;;;;;6241474;23;20207;-89
2022/05/27 08:25:58;;;;;;;4.15;2.05;;;;;;;;;;6241407;23;20075;-89
2022/05/27 08:28:27;;;;;;;2.90;1.50;;;;;;;;;;6240230;23;20480;-90
2022/05/27 08:30:55;;;;;;;3.80;1.60;;;;;;;;;;6240298;23;20075;-90
2022/05/27 08:33:22;;;;;;;23.55;3.30;;;;;;;;;;6239819;23;20016;-91
2022/05/27 08:38:34;;;;;;;4.15;1.80;;;;;;;;;;6241603;23;20618;-91
2022/05/27 08:41:18;;;;;;;6.60;2.00;;;;;;;;;;6239759;23;20004;-92
2022/05/27 08:44:17;;;;;;;1.98;1.50;;;;;;;;;;6241344;23;20421;-89
2022/05/27 08:46:51;;;;;;;3.25;2.28;;;;;;;;;;6223888;23;20087;-88
2022/05/27 08:49:37;;;;;;;2.47;1.40;;;;;;;;;;6240521;23;20004;-92
2022/05/27 08:52:12;;;;;;;2.63;1.33;;;;;;;;;;6239786;23;20474;-89
2022/05/27 08:54:50;;;;;;;8.07;4.13;;;;;;;;;;6240476;23;20007;-88
2022/05/27 09:00:04;;;;;;;9.13;4.63;;;;;;;;;;6240731;23;20011;-89
2022/05/27 09:02:44;;;;;;;8.80;3.22;;;;;;;;;;6240718;23;20447;-88
2022/05/27 09:05:23;;;;;;;5.32;2.05;;;;;;;;;;6241495;23;20004;-86
2022/05/27 09:07:52;;;;;;;5.55;2.85;;;;;;;;;;6240983;23;20426;-88
2022/05/27 09:10:23;;;;;;;4.97;2.65;;;;;;;;;;6242241;23;20024;-89
2022/05/27 09:13:05;;;;;;;7.38;3.33;;;;;;;;;;6241753;23;20012;-88
2022/05/27 09:15:51;;;;;;;7.32;3.40;;;;;;;;;;6243723;23;20079;-93
2022/05/27 09:18:32;;;;;;;6.20;2.63;;;;;;;;;;6240344;23;20015;-87
2022/05/27 09:21:02;;;;;;;7.20;3.80;;;;;;;;;;6242461;23;20134;-87
2022/05/27 09:23:40;;;;;;;6.88;3.15;;;;;;;;;;6244236;23;19996;-89
2022/05/27 09:26:06;;;;;;;;;;;;;;;;;;6244277;23;20004;-92
2022/05/27 09:28:50;;;;;;;9.20;4.05;;;;;;;;;;6242874;23;19941;-90
2022/05/27 09:31:20;;;;;;;14.77;3.25;;;;;;;;;;6240712;23;20000;-88
2022/05/27 09:33:47;;;;;;;3.30;1.95;;;;;;;;;;6242286;23;20004;-88
2022/05/27 09:36:28;;;;;;;3.75;1.70;;;;;;;;;;6243300;23;20075;-91
2022/05/27 09:38:57;;;;;;;5.70;3.05;;;;;;;;;;6240021;23;20004;-90
2022/05/27 09:41:23;;;;;;;13.05;2.17;;;;;;;;;;6266454;23;20008;-87
2022/05/27 09:43:52;;;;;;;2.35;1.48;;;;;;;;;;6260980;23;20018;-87
2022/05/27 09:46:23;;;;;;;2.92;1.42;;;;;;;;;;6268585;22;20004;-90
2022/05/27 09:48:49;;;;;;;4.72;1.42;;;;;;;;;;6257127;23;20066;-88
2022/05/27 09:51:16;;;;;;;4.38;1.50;;;;;;;;;;6244483;23;20000;-88
2022/05/27 09:53:45;;;;;;;2.95;1.80;;;;;;;;;;6243652;23;20000;-89
2022/05/27 09:56:12;;;;;;;3.78;1.30;;;;;;;;;;6241566;23;20000;-88
2022/05/27 09:58:40;;;;;;;3.35;1.63;;;;;;;;;;6242254;23;20005;-87
2022/05/27 10:01:23;;;;;;;4.97;1.85;;;;;;;;;;6242005;23;20071;-89
2022/05/27 10:03:59;;;;;;;2.65;1.70;;;;;;;;;;6242147;23;20067;-87
2022/05/27 10:06:27;;;;;;;3.38;1.80;;;;;;;;;;6241760;23;20020;-86
2022/05/27 10:08:57;;;;;;;3.75;1.88;;;;;;;;;;6240234;23;20040;-88
2022/05/27 10:11:23;;;;;;;153.05;12.70;;;;;;;;;;6240558;23;20039;-89
2022/05/27 10:14:10;;;;;;;4.97;1.60;;;;;;;;;;6240583;23;20004;-88
2022/05/27 10:16:37;;;;;;;6.00;1.50;;;;;;;;;;6241699;23;20000;-90
2022/05/27 10:19:14;;;;;;;3.70;1.70;;;;;;;;;;6243448;23;20231;-90
2022/05/27 10:21:54;;;;;;;5.13;1.30;;;;;;;;;;6242224;23;20054;-90
2022/05/27 10:24:27;;;;;;;4.13;1.52;;;;;;;;;;6241961;23;20010;-90
2022/05/27 10:27:05;;;;;;;3.40;1.55;;;;;;;;;;6241659;23;20011;-88
2022/05/27 10:29:32;;;;;;;3.13;1.65;;;;;;;;;;6241628;23;20012;-90
2022/05/27 10:31:59;;;;;;;3.00;1.45;;;;;;;;;;6241412;23;20004;-88
2022/05/27 10:34:48;;;;;;;2.93;1.47;;;;;;;;;;6240016;23;20004;-89
2022/05/27 10:37:22;;;;;;;2.58;1.10;;;;;;;;;;6242093;23;20031;-88
2022/05/27 10:39:57;;;;;;;1.27;1.00;;;;;;;;;;6242615;23;19997;-88
2022/05/27 10:42:26;;;;;;;3.38;0.98;;;;;;;;;;6241346;23;20091;-88
2022/05/27 10:45:06;;;;;;;1.35;1.02;;;;;;;;;;6241499;23;20027;-87
2022/05/27 10:47:59;;;;;;;2.13;1.33;;;;;;;;;;6240053;23;20437;-88
2022/05/27 10:50:31;;;;;;;1.50;1.00;;;;;;;;;;6217055;23;20000;-89
2022/05/27 10:53:12;;;;;;;0.88;0.88;;;;;;;;;;6241206;23;20476;-88
2022/05/27 10:55:44;;;;;;;3.50;1.20;;;;;;;;;;6241363;23;19996;-88
2022/05/27 11:04:00;;;;;;;3.65;1.50;;;;;;;;;;6241841;23;20023;-89
2022/05/27 11:06:32;;;;;;;2.10;1.45;;;;;;;;;;6240996;23;20001;-89
2022/05/27 11:09:01;;;;;;;1.23;1.13;;;;;;;;;;6239795;23;20004;-90
2022/05/27 11:11:46;;;;;;;3.80;1.00;;;;;;;;;;6239617;23;20421;-91
2022/05/27 11:17:18;;;;;;;1.77;1.20;;;;;;;;;;6241778;23;20015;-90
2022/05/27 11:19:44;;;;;;;2.40;0.90;;;;;;;;;;6241471;23;20341;-89
2022/05/27 11:22:18;;;;;;;2.38;1.42;;;;;;;;;;6240899;23;20000;-88
2022/05/27 11:24:55;;;;;;;2.20;0.88;;;;;;;;;;6239457;23;20101;-88
2022/05/27 11:27:39;;;;;;;1.85;1.00;;;;;;;;;;6241743;23;20075;-90
2022/05/27 11:30:06;;;;;;;4.00;1.83;;;;;;;;;;6241413;23;20058;-89
2022/05/27 11:32:56;;;;;;;3.38;1.30;;;;;;;;;;6241343;23;20012;-88
2022/05/27 11:35:37;;;;;;;0.80;0.80;;;;;;;;;;6240812;23;20024;-87
2022/05/27 11:38:13;;;;;;;1.00;0.90;;;;;;;;;;6241084;23;20007;-87
2022/05/27 11:40:51;;;;;;;2.70;1.30;;;;;;;;;;6240964;23;19996;-88
2022/05/27 11:43:23;;;;;;;1.02;1.02;;;;;;;;;;6239843;23;20011;-86
2022/05/27 11:46:00;;;;;;;1.20;0.98;;;;;;;;;;6241780;23;20028;-87
2022/05/27 11:48:32;;;;;;;1.52;1.15;;;;;;;;;;6241092;23;20378;-87
2022/05/27 11:50:58;;;;;;;2.03;0.90;;;;;;;;;;6239350;23;20008;-89
2022/05/27 11:53:33;;;;;;;1.83;0.90;;;;;;;;;;6240972;23;20008;-87
2022/05/27 11:56:04;;;;;;;1.35;1.00;;;;;;;;;;6241453;23;20027;-89
2022/05/27 11:58:43;;;;;;;0.90;0.90;;;;;;;;;;6239441;23;20011;-89
2022/05/27 12:01:12;;;;;;;3.50;1.33;;;;;;;;;;6239494;23;20027;-90
2022/05/27 12:03:44;;;;;;;1.10;1.00;;;;;;;;;;6239182;23;20090;-89
2022/05/27 12:06:13;;;;;;;1.23;1.13;;;;;;;;;;6238993;23;20004;-89
2022/05/27 12:08:43;;;;;;;1.38;1.02;;;;;;;;;;6240731;23;20086;-86
2022/05/27 12:11:17;;;;;;;2.70;1.20;;;;;;;;;;6241054;23;20000;-90
2022/05/27 12:13:48;;;;;;;1.42;1.02;;;;;;;;;;6242051;23;20012;-88
2022/05/27 12:16:16;;;;;;;0.90;0.50;;;;;;;;;;6240749;23;20389;-88
2022/05/27 12:18:47;;;;;;;2.65;1.23;;;;;;;;;;6242179;23;20341;-89
2022/05/27 12:21:19;;;;;;;2.83;1.02;;;;;;;;;;6265473;22;20008;-88
2022/05/27 12:23:48;;;;;;;1.52;0.70;;;;;;;;;;6253805;23;20395;-88
2022/05/27 12:26:14;;;;;;;3.17;0.82;;;;;;;;;;6243854;23;20339;-90
2022/05/27 12:28:42;;;;;;;0.95;0.90;;;;;;;;;;6241961;23;20066;-90
2022/05/27 12:31:08;;;;;;;1.85;1.30;;;;;;;;;;6240728;23;19996;-89
2022/05/27 12:33:36;;;;;;;1.15;1.05;;;;;;;;;;6239127;23;20016;-89
2022/05/27 12:36:12;;;;;;;2.77;1.10;;;;;;;;;;6245162;23;20352;-89
2022/05/27 12:38:46;;;;;;;1.40;1.00;;;;;;;;;;6247944;23;20006;-87
2022/05/27 12:41:16;;;;;;;1.05;0.93;;;;;;;;;;6240887;23;20051;-89
2022/05/27 12:44:02;;;;;;;2.50;1.05;;;;;;;;;;6239428;23;20330;-88
2022/05/27 12:46:45;;;;;;;0.95;0.60;;;;;;;;;;6239435;23;20039;-90
2022/05/27 12:49:26;;;;;;;6.57;0.90;;;;;;;;;;6239169;23;20008;-87
2022/05/27 12:51:53;;;;;;;0.60;0.60;;;;;;;;;;6241351;23;20015;-89
2022/05/27 12:54:38;;;;;;;1.00;0.75;;;;;;;;;;6240886;23;20004;-88
2022/05/27 13:03:06;;;;;;;0.70;0.70;;;;;;;;;;6242331;23;20042;-89
2022/05/27 13:05:51;;;;;;;1.48;0.80;;;;;;;;;;6240862;23;20437;-90
2022/05/27 13:08:21;;;;;;;2.28;0.70;;;;;;;;;;6240892;23;20039;-89
2022/05/27 13:10:49;;;;;;;0.70;0.70;;;;;;;;;;6242388;23;20008;-90
2022/05/27 13:13:16;;;;;;;1.08;0.80;;;;;;;;;;6241145;23;20034;-89
2022/05/27 13:15:45;;;;;;;0.70;0.70;;;;;;;;;;6242724;23;20007;-90
2022/05/27 13:18:31;;;;;;;1.80;0.88;;;;;;;;;;6241479;23;20032;-89
2022/05/27 13:21:20;;;;;;;0.75;0.75;;;;;;;;;;6227336;23;20067;-91
2022/05/27 13:23:51;;;;;;;1.45;1.00;;;;;;;;;;6242422;23;20000;-91
2022/05/27 13:26:35;;;;;;;2.03;1.35;;;;;;;;;;6242994;23;20000;-89
2022/05/27 13:29:02;;;;;;;1.88;1.40;;;;;;;;;;6243068;23;20001;-90
2022/05/27 13:31:34;;;;;;;0.93;0.85;;;;;;;;;;6243262;23;20000;-90
2022/05/27 13:34:14;;;;;;;1.52;1.02;;;;;;;;;;6242267;23;20010;-88
2022/05/27 13:36:49;;;;;;;1.45;1.25;;;;;;;;;;6241551;23;20004;-89
2022/05/27 13:39:16;;;;;;;3.70;1.33;;;;;;;;;;6241353;23;20015;-90
2022/05/27 13:41:43;;;;;;;1.35;1.25;;;;;;;;;;6242967;23;20014;-89
2022/05/27 13:44:11;;;;;;;1.70;1.10;;;;;;;;;;6245423;23;20000;-90
2022/05/27 13:46:41;;;;;;;1.00;0.90;;;;;;;;;;6247228;23;20038;-91
2022/05/27 13:49:14;;;;;;;1.02;0.93;;;;;;;;;;6242524;23;19996;-89
2022/05/27 13:51:41;;;;;;;3.20;0.73;;;;;;;;;;6241442;23;20008;-92
2022/05/27 13:54:33;;;;;;;2.08;0.90;;;;;;;;;;6242456;23;20050;-91
2022/05/27 13:57:05;;;;;;;0.95;0.80;;;;;;;;;;6241607;23;20000;-89
2022/05/27 13:59:36;;;;;;;0.52;0.52;;;;;;;;;;6241701;23;20008;-91
2022/05/27 14:02:04;;;;;;;0.90;0.88;;;;;;;;;;6242098;23;20003;-91
2022/05/27 14:04:42;;;;;;;0.88;0.88;;;;;;;;;;6242237;23;20341;-88
2022/05/27 14:07:27;;;;;;;0.88;0.88;;;;;;;;;;6240578;23;20022;-90
2022/05/27 14:09:57;;;;;;;1.98;1.00;;;;;;;;;;6241866;23;20000;-89
2022/05/27 14:12:23;;;;;;;0.70;0.70;;;;;;;;;;6241411;23;20011;-90
2022/05/27 14:14:53;;;;;;;3.15;1.30;;;;;;;;;;6240877;23;20004;-90
2022/05/27 14:17:21;;;;;;;1.05;0.95;;;;;;;;;;6240766;23;20402;-90
2022/05/27 14:19:57;;;;;;;1.17;1.08;;;;;;;;;;6241847;23;20503;-90
2022/05/27 14:22:41;;;;;;;0.60;0.60;;;;;;;;;;6240500;23;20008;-89
2022/05/27 14:25:28;;;;;;;0.82;0.82;;;;;;;;;;6240291;23;20007;-92
2022/05/27 14:27:56;;;;;;;2.05;1.00;;;;;;;;;;6241480;23;20004;-89
2022/05/27 14:30:36;;;;;;;0.88;0.88;;;;;;;;;;6239819;23;20004;-90
2022/05/27 14:33:03;;;;;;;0.80;0.73;;;;;;;;;;6240197;23;20012;-90
2022/05/27 14:35:31;;;;;;;2.50;0.80;;;;;;;;;;6242451;23;19996;-91
2022/05/27 14:38:26;;;;;;;1.23;1.20;;;;;;;;;;6241378;23;20004;-90
2022/05/27 14:40:53;;;;;;;1.20;1.10;;;;;;;;;;6233718;23;20047;-90
2022/05/27 14:43:25;;;;;;;1.83;1.40;;;;;;;;;;6240438;23;20026;-89
2022/05/27 14:45:53;;;;;;;1.63;1.30;;;;;;;;;;6240706;23;20553;-90
2022/05/27 14:48:23;;;;;;;2.72;1.75;;;;;;;;;;6240407;23;20098;-89
2022/05/27 14:50:49;;;;;;;1.42;1.33;;;;;;;;;;6256822;22;20024;-88
2022/05/27 14:53:16;;;;;;;1.35;1.10;;;;;;;;;;6265820;23;20023;-88
2022/05/27 14:55:42;;;;;;;2.58;1.45;;;;;;;;;;6266957;22;20000;-89
2022/05/27 14:58:09;;;;;;;1.45;1.35;;;;;;;;;;6253728;22;20004;-90
2022/05/27 15:00:41;;;;;;;1.52;1.25;;;;;;;;;;6239584;23;20000;-91
2022/05/27 15:03:39;;;;;;;1.42;1.20;;;;;;;;;;6238590;23;20064;-88
2022/05/27 15:06:08;;;;;;;2.08;1.20;;;;;;;;;;6227516;23;20000;-89
2022/05/27 15:08:35;;;;;;;2.47;1.10;;;;;;;;;;6241103;23;20495;-90
2022/05/27 15:11:09;;;;;;;2.55;1.38;;;;;;;;;;6240552;23;20039;-89
2022/05/27 15:13:44;;;;;;;2.05;1.20;;;;;;;;;;6238963;23;20468;-88
2022/05/27 15:16:12;;;;;;;2.47;1.30;;;;;;;;;;6244066;23;20075;-91
2022/05/27 15:18:58;;;;;;;1.13;1.02;;;;;;;;;;6243409;23;20075;-94
2022/05/27 15:21:28;;;;;;;1.55;1.10;;;;;;;;;;6243956;23;20007;-90
2022/05/27 15:24:00;;;;;;;1.75;1.10;;;;;;;;;;6241055;23;20042;-91
2022/05/27 15:35:06;;;;;;;1.30;0.90;;;;;;;;;;6242417;23;20595;-89
2022/05/27 15:37:32;;;;;;;0.98;0.90;;;;;;;;;;6242373;23;20059;-92